Accueil
METAR-TAF:

METAR-TAF

Aéroports :

Unalaska, Alaska, États-Unis

latitude: 53-54N, longitude: 166-32W, altitude: 7 m

Observation

Le bulletin a été fait il y a 53 minutes, à 21:56 UTC
Vent 3 kt de sud
Température -2°C
Humidité 63%
Pression 1014 hPa
Visibilité: 16.1 km
Quelques nuages à une hauteur de 3500 ft

METAR: PADU 222156Z 18003KT 10SM FEW035 M02/M08 A2995 RMK AO2 SLP146 T10221078

Heure: 13:49 (22:49 UTC)

Prévision

Le bulletin a été fait il y a 5 heures et 16 minutes, à 17:33 UTC
Prévision valable du 22 à 18 UTC au 23 à 18 UTC
Vent 8 kt de est
Visibilité: 10 km
Nuages épars à une hauteur de 4000 ft

TAF: PADU 221733Z 2218/2318 09008KT P6SM SCT040

Observations et prévisions météorologiques de plus de 4000 aéroports (messages METAR et TAF).

Les stations disponibles sont représentées par des disques jaunes et rouges sur la carte.

Passer la souris dessus pour voir le nom de la station.

Cliquer dessus pour voir les observations et prévisions météorologiques.

Pour changer de carte: cliquez sur les boutons verts avec une croix noire pour zoomer, sur le bouton vert avec un tiret pour effectuer un zoom arrière, ou sur les flèches vertes pour les cartes adjacentes.


METAR-TAF: